createdAt,value
2018-04-08T00:01:04.919Z,78.93
2018-04-08T00:03:33.528Z,79.34
2018-04-08T00:06:02.198Z,79.71
2018-04-08T00:08:30.944Z,79.87
2018-04-08T00:10:59.577Z,79.97
2018-04-08T00:13:28.214Z,80.27
2018-04-08T00:15:56.946Z,80.66
2018-04-08T00:18:26.376Z,81.02
2018-04-08T00:20:55.057Z,81.11
2018-04-08T00:23:25.377Z,81.10
2018-04-08T00:25:54.340Z,81.16
2018-04-08T00:28:23.054Z,81.41
2018-04-08T00:30:51.594Z,81.21
2018-04-08T00:33:20.207Z,80.77
2018-04-08T00:35:48.890Z,80.87
2018-04-08T00:38:17.585Z,80.89
2018-04-08T00:40:46.224Z,80.84
2018-04-08T00:43:14.842Z,80.76
2018-04-08T00:45:43.458Z,80.67
2018-04-08T00:48:12.035Z,80.45
2018-04-08T00:50:40.596Z,80.33
2018-04-08T00:53:09.226Z,80.33
2018-04-08T00:55:38.044Z,80.54
2018-04-08T00:58:07.173Z,80.58
2018-04-08T01:00:36.752Z,80.69
2018-04-08T01:03:06.151Z,80.29
2018-04-08T01:05:35.350Z,80.34
2018-04-08T01:08:03.960Z,80.96
2018-04-08T01:10:32.610Z,81.00
2018-04-08T01:13:01.211Z,80.84
2018-04-08T01:15:29.822Z,80.82
2018-04-08T01:17:59.363Z,80.45
2018-04-08T01:20:27.994Z,80.72
2018-04-08T01:22:56.644Z,80.81
2018-04-08T01:25:26.426Z,80.85
2018-04-08T01:27:55.750Z,80.78
2018-04-08T01:30:24.788Z,80.60
2018-04-08T01:32:53.415Z,80.50
2018-04-08T01:35:22.777Z,80.66
2018-04-08T01:37:51.461Z,81.18
2018-04-08T01:40:20.061Z,81.29
2018-04-08T01:42:48.704Z,81.10
2018-04-08T01:45:17.385Z,80.76
2018-04-08T01:47:46.017Z,80.42
2018-04-08T01:50:14.691Z,79.92
2018-04-08T01:52:44.081Z,79.48
2018-04-08T01:55:12.579Z,79.38
2018-04-08T01:57:42.272Z,79.40
2018-04-08T02:00:11.616Z,79.76
2018-04-08T02:02:40.585Z,79.76
2018-04-08T02:05:09.189Z,80.19
2018-04-08T02:07:38.674Z,80.62
2018-04-08T02:10:07.473Z,80.70
2018-04-08T02:12:36.065Z,81.12
2018-04-08T02:15:04.672Z,81.52
2018-04-08T02:17:33.293Z,81.76
2018-04-08T02:20:01.906Z,82.37
2018-04-08T02:22:30.554Z,82.52
2018-04-08T02:24:59.905Z,82.41
2018-04-08T02:27:28.605Z,82.66
2018-04-08T02:29:57.307Z,82.59
2018-04-08T02:32:26.422Z,82.66
2018-04-08T02:34:55.419Z,82.70
2018-04-08T02:37:24.773Z,83.36
2018-04-08T02:39:53.358Z,82.92
2018-04-08T02:42:21.981Z,82.61
2018-04-08T02:44:50.554Z,82.21
2018-04-08T02:47:19.867Z,81.83
2018-04-08T02:49:48.416Z,81.82
2018-04-08T02:52:17.104Z,81.49
2018-04-08T02:54:45.902Z,81.24
2018-04-08T02:57:14.746Z,81.08
2018-04-08T02:59:43.314Z,81.34
2018-04-08T03:02:12.499Z,81.70
2018-04-08T03:04:41.780Z,81.43
2018-04-08T03:07:10.456Z,81.74
2018-04-08T03:09:39.827Z,82.25
2018-04-08T03:12:08.357Z,82.72
2018-04-08T03:14:36.916Z,83.12
2018-04-08T03:17:05.608Z,83.72
2018-04-08T03:19:34.220Z,84.04
2018-04-08T03:22:02.810Z,84.13
2018-04-08T03:24:32.291Z,84.33
2018-04-08T03:27:00.865Z,84.38
2018-04-08T03:29:29.588Z,84.15
2018-04-08T03:31:58.317Z,84.12
2018-04-08T03:34:27.400Z,84.26
2018-04-08T03:36:56.943Z,84.26
2018-04-08T03:39:25.780Z,84.58
2018-04-08T03:41:54.428Z,85.12
2018-04-08T03:44:22.974Z,85.17
2018-04-08T03:46:51.698Z,84.83
2018-04-08T03:49:20.230Z,84.13
2018-04-08T03:51:48.871Z,83.68
2018-04-08T03:54:17.614Z,82.71
2018-04-08T03:56:46.286Z,82.63
2018-04-08T03:59:14.934Z,82.65
2018-04-08T04:01:43.617Z,81.68
2018-04-08T04:04:12.120Z,82.25
2018-04-08T04:06:40.846Z,82.61
2018-04-08T04:09:09.794Z,82.87
2018-04-08T04:11:39.944Z,83.20
2018-04-08T04:14:08.580Z,83.41
2018-04-08T04:16:37.148Z,83.54
2018-04-08T04:19:24.347Z,83.63
2018-04-08T04:22:10.681Z,83.50
2018-04-08T04:28:06.211Z,81.89
2018-04-08T04:30:34.836Z,81.67
2018-04-08T04:33:03.523Z,81.69
2018-04-08T04:35:32.158Z,81.74
2018-04-08T04:38:00.740Z,81.67
2018-04-08T04:40:30.157Z,81.52
2018-04-08T04:42:58.908Z,81.87
2018-04-08T04:45:27.517Z,81.44
2018-04-08T04:47:56.101Z,81.33
2018-04-08T04:50:24.697Z,81.48
2018-04-08T04:52:54.297Z,81.53
2018-04-08T04:55:23.201Z,81.55
2018-04-08T04:57:52.113Z,81.77
2018-04-08T05:00:20.868Z,82.02
2018-04-08T05:02:49.578Z,82.09
2018-04-08T05:05:18.123Z,82.34
2018-04-08T05:07:47.537Z,82.37
2018-04-08T05:10:16.802Z,82.42
2018-04-08T05:12:45.398Z,82.58
2018-04-08T05:15:14.147Z,82.51
2018-04-08T05:17:42.771Z,82.18
2018-04-08T05:20:12.315Z,82.16
2018-04-08T05:22:40.937Z,82.28
2018-04-08T05:25:09.590Z,82.04
2018-04-08T05:27:39.107Z,81.48
2018-04-08T05:30:08.294Z,80.84
2018-04-08T05:32:36.868Z,80.61
2018-04-08T05:35:06.187Z,80.34
2018-04-08T05:37:34.830Z,80.40
2018-04-08T05:40:03.582Z,79.92
2018-04-08T05:42:32.909Z,79.42
2018-04-08T05:45:01.709Z,79.32
2018-04-08T05:47:30.326Z,78.77
2018-04-08T05:50:00.075Z,77.77
2018-04-08T05:52:29.533Z,78.26
2018-04-08T05:54:58.092Z,77.04
2018-04-08T05:57:26.939Z,73.11
2018-04-08T05:59:56.263Z,69.21
2018-04-08T06:02:25.283Z,65.29
2018-04-08T06:04:53.947Z,63.32
2018-04-08T06:07:23.374Z,61.80
2018-04-08T06:09:52.942Z,61.53
2018-04-08T06:12:21.591Z,59.24
2018-04-08T06:14:50.358Z,57.47
2018-04-08T06:17:19.222Z,58.36
2018-04-08T06:19:48.602Z,55.30
2018-04-08T06:22:17.139Z,54.73
2018-04-08T06:24:45.886Z,54.62
2018-04-08T06:27:14.552Z,56.66
2018-04-08T06:29:43.166Z,57.62
2018-04-08T06:32:11.742Z,57.23
2018-04-08T06:34:40.433Z,54.86
2018-04-08T06:37:09.184Z,52.87
2018-04-08T06:39:38.609Z,51.98
2018-04-08T06:42:07.330Z,52.89
2018-04-08T06:44:36.868Z,49.90
2018-04-08T06:47:06.639Z,47.45
2018-04-08T06:49:36.195Z,46.47
2018-04-08T06:52:06.958Z,46.14
2018-04-08T06:54:36.994Z,45.00
2018-04-08T06:57:06.394Z,44.20
2018-04-08T06:59:35.789Z,45.18
2018-04-08T07:02:04.405Z,45.28
2018-04-08T07:04:33.879Z,46.42
2018-04-08T07:07:03.381Z,45.17
2018-04-08T07:09:31.920Z,46.26
2018-04-08T07:12:01.381Z,46.73
2018-04-08T07:14:30.361Z,45.09
2018-04-08T07:16:59.779Z,43.57
2018-04-08T07:19:29.318Z,42.91
2018-04-08T07:21:58.012Z,42.52
2018-04-08T07:24:27.445Z,42.01
2018-04-08T07:26:56.239Z,41.03
2018-04-08T07:29:26.721Z,40.16
2018-04-08T07:31:55.485Z,38.26
2018-04-08T07:34:24.973Z,37.92
2018-04-08T07:36:53.641Z,37.59
2018-04-08T07:39:22.344Z,36.92
2018-04-08T07:41:51.728Z,36.12
2018-04-08T07:44:21.240Z,35.68
2018-04-08T07:46:50.781Z,35.37
2018-04-08T07:49:19.919Z,34.17
2018-04-08T07:51:49.208Z,33.44
2018-04-08T07:54:17.948Z,33.22
2018-04-08T07:56:47.051Z,32.13
2018-04-08T07:59:15.827Z,31.65
2018-04-08T08:01:44.461Z,31.18
2018-04-08T08:04:13.150Z,28.98
2018-04-08T08:06:41.817Z,29.53
2018-04-08T08:09:10.529Z,28.76
2018-04-08T08:11:39.102Z,27.24
2018-04-08T08:14:07.653Z,27.26
2018-04-08T08:16:36.852Z,26.44
2018-04-08T08:19:06.186Z,26.89
2018-04-08T08:21:34.863Z,26.26
2018-04-08T08:24:04.411Z,26.20
2018-04-08T08:26:33.080Z,25.35
2018-04-08T08:29:02.617Z,25.10
2018-04-08T08:31:31.276Z,24.62
2018-04-08T08:33:59.831Z,24.80
2018-04-08T08:36:29.197Z,24.20
2018-04-08T08:38:57.835Z,23.40
2018-04-08T08:41:26.384Z,24.08
2018-04-08T08:43:55.786Z,24.92
2018-04-08T08:46:26.919Z,25.77
2018-04-08T08:48:56.074Z,24.03
2018-04-08T08:51:25.501Z,23.33
2018-04-08T08:53:54.363Z,22.88
2018-04-08T08:56:23.142Z,21.27
2018-04-08T08:58:52.056Z,20.39
2018-04-08T09:01:20.863Z,21.13
2018-04-08T09:03:49.784Z,22.30
2018-04-08T09:06:18.854Z,21.47
2018-04-08T09:08:48.647Z,22.52
2018-04-08T09:11:17.480Z,22.56
2018-04-08T09:13:46.443Z,22.35
2018-04-08T09:16:16.498Z,24.02
2018-04-08T09:18:47.870Z,24.33
2018-04-08T09:21:28.403Z,23.39
2018-04-08T09:23:57.867Z,22.17
2018-04-08T09:26:26.905Z,24.83
2018-04-08T09:28:56.397Z,25.07
2018-04-08T09:31:26.424Z,25.01
2018-04-08T09:33:56.464Z,24.27
2018-04-08T09:36:25.460Z,23.17
2018-04-08T09:38:55.407Z,22.39
2018-04-08T09:41:25.377Z,22.20
2018-04-08T09:43:54.175Z,16.74
2018-04-08T09:46:22.874Z,16.22
2018-04-08T09:48:51.667Z,19.98
2018-04-08T09:51:20.483Z,17.04
2018-04-08T09:53:49.186Z,19.65
2018-04-08T09:56:18.014Z,17.83
2018-04-08T09:58:49.860Z,18.67
2018-04-08T10:01:25.171Z,18.80
2018-04-08T10:03:55.444Z,19.62
2018-04-08T10:06:25.055Z,17.96
2018-04-08T10:08:53.842Z,17.01
2018-04-08T10:11:22.621Z,16.23
2018-04-08T10:13:51.649Z,14.46
2018-04-08T10:16:20.407Z,15.53
2018-04-08T10:18:50.002Z,17.33
2018-04-08T10:21:18.735Z,18.92
2018-04-08T10:23:47.505Z,16.50
2018-04-08T10:26:16.856Z,16.71
2018-04-08T10:28:46.887Z,17.51
2018-04-08T10:31:15.508Z,17.39
2018-04-08T10:33:44.178Z,18.10
2018-04-08T10:36:12.878Z,17.92
2018-04-08T10:38:41.572Z,15.77
2018-04-08T10:41:10.410Z,17.52
2018-04-08T10:43:39.089Z,16.59
2018-04-08T10:46:07.693Z,18.01
2018-04-08T10:48:36.316Z,19.78
2018-04-08T10:51:04.961Z,19.90
2018-04-08T10:53:33.581Z,21.71
2018-04-08T10:56:02.292Z,21.42
2018-04-08T10:58:31.394Z,22.14
2018-04-08T11:01:00.624Z,22.02
2018-04-08T11:03:29.460Z,19.64
2018-04-08T11:05:59.219Z,19.41
2018-04-08T11:08:27.870Z,19.08
2018-04-08T11:10:56.539Z,18.34
2018-04-08T11:13:25.970Z,17.12
2018-04-08T11:15:55.628Z,18.31
2018-04-08T11:18:25.335Z,17.52
2018-04-08T11:20:54.036Z,18.05
2018-04-08T11:23:22.741Z,17.22
2018-04-08T11:25:52.672Z,18.42
2018-04-08T11:28:22.024Z,19.53
2018-04-08T11:30:50.950Z,20.59
2018-04-08T11:33:19.562Z,20.21
2018-04-08T11:35:48.281Z,17.84
2018-04-08T11:38:17.703Z,16.05
2018-04-08T11:40:47.070Z,18.58
2018-04-08T11:43:15.842Z,17.30
2018-04-08T11:45:46.158Z,17.49
2018-04-08T11:48:14.769Z,15.72
2018-04-08T11:50:43.401Z,14.87
2018-04-08T11:53:12.177Z,15.17
2018-04-08T11:55:40.974Z,14.57
2018-04-08T11:58:10.240Z,16.63
2018-04-08T12:00:40.624Z,16.14
2018-04-08T12:03:09.603Z,20.24
2018-04-08T12:05:38.446Z,19.57
2018-04-08T12:08:07.013Z,18.52
2018-04-08T12:10:36.646Z,17.34
2018-04-08T12:13:05.380Z,16.49
2018-04-08T12:15:34.029Z,15.82
2018-04-08T12:18:03.922Z,18.00
2018-04-08T12:20:32.553Z,20.13
2018-04-08T12:23:01.481Z,17.97
2018-04-08T12:25:31.080Z,16.96
2018-04-08T12:28:00.274Z,16.50
2018-04-08T12:30:29.845Z,17.02
2018-04-08T12:32:58.992Z,19.24
2018-04-08T12:35:27.873Z,19.25
2018-04-08T12:37:56.504Z,19.12
2018-04-08T12:40:26.815Z,18.92
2018-04-08T12:42:55.785Z,17.58
2018-04-08T12:45:24.636Z,16.72
2018-04-08T12:47:53.398Z,19.77
2018-04-08T12:50:22.266Z,20.27
2018-04-08T12:52:51.144Z,21.51
2018-04-08T12:55:19.824Z,19.05
2018-04-08T12:57:48.954Z,18.27
2018-04-08T13:00:18.203Z,19.50
2018-04-08T13:02:47.497Z,18.79
2018-04-08T13:05:16.535Z,20.03
2018-04-08T13:07:45.287Z,21.05
2018-04-08T13:10:14.042Z,21.41
2018-04-08T13:12:44.120Z,20.74
2018-04-08T13:15:12.849Z,18.16
2018-04-08T13:17:42.161Z,17.74
2018-04-08T13:20:10.962Z,16.64
2018-04-08T13:22:39.655Z,16.02
2018-04-08T13:25:08.426Z,16.51
2018-04-08T13:27:37.155Z,15.91
2018-04-08T13:30:06.364Z,15.61
2018-04-08T13:32:35.409Z,14.79
2018-04-08T13:35:04.159Z,14.81
2018-04-08T13:37:33.572Z,15.29
2018-04-08T13:40:02.234Z,15.58
2018-04-08T13:42:30.849Z,18.45
2018-04-08T13:44:59.682Z,20.01
2018-04-08T13:47:28.340Z,18.94
2018-04-08T13:49:57.047Z,18.18
2018-04-08T13:52:25.760Z,18.91
2018-04-08T13:54:54.526Z,17.47
2018-04-08T13:57:23.947Z,16.54
2018-04-08T13:59:54.669Z,15.69
2018-04-08T14:02:23.561Z,16.73
2018-04-08T14:04:52.547Z,16.71
2018-04-08T14:07:21.158Z,16.96
2018-04-08T14:09:49.862Z,16.51
2018-04-08T14:12:19.298Z,16.89
2018-04-08T14:14:48.000Z,17.47
2018-04-08T14:17:17.632Z,18.51
2018-04-08T14:19:46.291Z,18.69
2018-04-08T14:22:14.924Z,18.57
2018-04-08T14:24:44.360Z,18.73
2018-04-08T14:27:13.695Z,19.29
2018-04-08T14:29:42.425Z,18.94
2018-04-08T14:32:11.460Z,19.46
2018-04-08T14:34:40.760Z,19.10
2018-04-08T14:37:09.736Z,18.97
2018-04-08T14:39:38.285Z,17.84
2018-04-08T14:42:07.010Z,17.78
2018-04-08T14:44:35.655Z,17.46
2018-04-08T14:47:05.216Z,17.98
2018-04-08T14:49:34.986Z,18.03
2018-04-08T14:52:03.620Z,18.58
2018-04-08T14:54:32.982Z,18.79
2018-04-08T14:57:01.894Z,19.40
2018-04-08T14:59:30.760Z,21.62
2018-04-08T15:02:00.626Z,21.38
2018-04-08T15:04:29.924Z,21.35
2018-04-08T15:06:58.892Z,21.39
2018-04-08T15:09:27.799Z,21.97
2018-04-08T15:11:56.787Z,21.99
2018-04-08T15:14:25.908Z,22.62
2018-04-08T15:16:55.306Z,23.58
2018-04-08T15:19:24.254Z,22.96
2018-04-08T15:21:53.338Z,23.22
2018-04-08T15:24:22.576Z,23.24
2018-04-08T15:26:51.518Z,23.08
2018-04-08T15:29:20.478Z,23.09
2018-04-08T15:31:50.381Z,22.77
2018-04-08T15:34:21.071Z,22.62
2018-04-08T15:36:50.174Z,23.88
2018-04-08T15:39:19.160Z,24.86
2018-04-08T15:41:48.158Z,23.76
2018-04-08T15:44:17.320Z,23.35
2018-04-08T15:46:46.668Z,21.84
2018-04-08T15:49:16.383Z,21.43
2018-04-08T15:51:45.477Z,20.57
2018-04-08T15:54:15.301Z,20.52
2018-04-08T15:56:45.417Z,20.79
2018-04-08T15:59:15.054Z,21.07
2018-04-08T16:01:44.425Z,21.78
2018-04-08T16:04:13.593Z,21.98
2018-04-08T16:06:43.237Z,22.25
2018-04-08T16:09:13.370Z,22.64
2018-04-08T16:11:42.402Z,22.15
2018-04-08T16:14:12.281Z,22.21
2018-04-08T16:16:41.709Z,22.30
2018-04-08T16:19:10.841Z,22.83
2018-04-08T16:21:39.975Z,22.79
2018-04-08T16:24:09.500Z,23.03
2018-04-08T16:26:40.256Z,23.14
2018-04-08T16:29:09.469Z,23.43
2018-04-08T16:31:38.731Z,23.88
2018-04-08T16:34:08.181Z,24.36
2018-04-08T16:36:37.246Z,25.13
2018-04-08T16:39:06.546Z,25.55
2018-04-08T16:41:35.991Z,25.88
2018-04-08T16:44:05.045Z,26.03
2018-04-08T16:46:34.206Z,26.38
2018-04-08T16:49:03.552Z,27.13
2018-04-08T16:51:32.963Z,27.82
2018-04-08T16:54:03.733Z,28.29
2018-04-08T16:56:33.396Z,28.75
2018-04-08T16:59:02.566Z,29.70
2018-04-08T17:01:32.496Z,29.61
2018-04-08T17:04:01.541Z,29.79
2018-04-08T17:06:30.623Z,29.31
2018-04-08T17:08:59.847Z,29.65
2018-04-08T17:11:28.981Z,32.11
2018-04-08T17:13:58.794Z,32.43
2018-04-08T17:16:27.985Z,31.56
2018-04-08T17:18:58.942Z,31.50
2018-04-08T17:21:28.761Z,30.58
2018-04-08T17:23:57.834Z,32.47
2018-04-08T17:26:26.831Z,35.98
2018-04-08T17:28:56.097Z,37.11
2018-04-08T17:31:25.616Z,36.32
2018-04-08T17:33:54.726Z,37.22
2018-04-08T17:36:23.729Z,38.79
2018-04-08T17:38:54.679Z,38.21
2018-04-08T17:41:24.550Z,37.82
2018-04-08T17:43:54.336Z,37.00
2018-04-08T17:46:24.996Z,38.81
2018-04-08T17:48:54.090Z,39.16
2018-04-08T17:51:23.072Z,40.59
2018-04-08T17:53:53.365Z,41.30
2018-04-08T17:56:22.340Z,42.10
2018-04-08T17:58:51.615Z,42.91
2018-04-08T18:01:21.422Z,43.49
2018-04-08T18:03:50.503Z,43.60
2018-04-08T18:06:19.799Z,44.02
2018-04-08T18:08:48.915Z,43.43
2018-04-08T18:11:19.226Z,43.23
2018-04-08T18:13:49.983Z,43.64
2018-04-08T18:16:20.153Z,43.83
2018-04-08T18:18:49.157Z,44.55
2018-04-08T18:21:20.018Z,44.88
2018-04-08T18:23:50.113Z,43.87
2018-04-08T18:26:19.340Z,44.38
2018-04-08T18:28:48.401Z,44.48
2018-04-08T18:31:17.644Z,44.72
2018-04-08T18:33:47.101Z,45.34
2018-04-08T18:36:17.068Z,45.52
2018-04-08T18:38:46.683Z,45.95
2018-04-08T18:41:17.230Z,45.96
2018-04-08T18:43:48.076Z,46.28
2018-04-08T18:46:17.346Z,46.95
2018-04-08T18:48:46.836Z,47.90
2018-04-08T18:51:17.095Z,48.10
2018-04-08T18:53:46.142Z,48.40
2018-04-08T18:56:15.875Z,48.67
2018-04-08T18:58:45.456Z,49.16
2018-04-08T19:01:14.928Z,49.40
2018-04-08T19:03:45.476Z,49.78
2018-04-08T19:06:14.764Z,50.26
2018-04-08T19:08:43.831Z,50.51
2018-04-08T19:11:12.961Z,50.03
2018-04-08T19:13:42.761Z,50.13
2018-04-08T19:16:11.996Z,50.50
2018-04-08T19:18:44.709Z,50.77
2018-04-08T19:21:13.792Z,51.45
2018-04-08T19:23:44.167Z,52.19
2018-04-08T19:26:14.058Z,52.17
2018-04-08T19:28:44.389Z,54.28
2018-04-08T19:31:13.568Z,56.47
2018-04-08T19:33:42.554Z,57.86
2018-04-08T19:36:11.680Z,58.11
2018-04-08T19:38:40.988Z,57.98
2018-04-08T19:41:10.593Z,57.44
2018-04-08T19:43:39.663Z,56.74
2018-04-08T19:46:21.722Z,55.88
2018-04-08T19:49:03.623Z,56.15
2018-04-08T19:51:33.437Z,55.69
2018-04-08T19:54:03.026Z,55.85
2018-04-08T19:56:34.007Z,55.94
2018-04-08T19:59:04.633Z,56.55
2018-04-08T20:01:35.103Z,57.14
2018-04-08T20:04:04.269Z,57.24
2018-04-08T20:06:34.772Z,56.53
2018-04-08T20:09:05.515Z,55.96
2018-04-08T20:11:35.305Z,55.74
2018-04-08T20:14:05.790Z,56.13
2018-04-08T20:16:35.691Z,55.82
2018-04-08T20:19:05.448Z,56.04
2018-04-08T20:21:34.835Z,55.77
2018-04-08T20:24:04.853Z,55.77
2018-04-08T20:26:34.456Z,56.19
2018-04-08T20:29:05.004Z,56.40
2018-04-08T20:31:34.126Z,56.29
2018-04-08T20:34:03.835Z,56.01
2018-04-08T20:36:32.845Z,55.80
2018-04-08T20:39:02.625Z,55.53
2018-04-08T20:41:31.703Z,55.25
2018-04-08T20:44:02.543Z,55.16
2018-04-08T20:46:31.631Z,55.41
2018-04-08T20:49:02.140Z,57.09
2018-04-08T20:51:33.203Z,57.57
2018-04-08T20:54:02.508Z,58.00
2018-04-08T20:56:31.594Z,57.10
2018-04-08T20:59:00.610Z,55.25
2018-04-08T21:01:31.030Z,55.08
2018-04-08T21:04:00.791Z,55.59
2018-04-08T21:06:29.857Z,56.97
2018-04-08T21:08:58.806Z,58.88
2018-04-08T21:11:27.868Z,60.31
2018-04-08T21:13:58.053Z,61.78
2018-04-08T21:16:27.421Z,62.16
2018-04-08T21:18:57.192Z,61.97
2018-04-08T21:21:26.063Z,61.56
2018-04-08T21:23:55.718Z,61.66
2018-04-08T21:26:24.737Z,61.95
2018-04-08T21:28:53.837Z,62.35
2018-04-08T21:31:22.809Z,61.80
2018-04-08T21:33:51.806Z,61.49
2018-04-08T21:36:21.846Z,60.96
2018-04-08T21:38:50.817Z,60.46
2018-04-08T21:41:20.542Z,60.11
2018-04-08T21:43:50.237Z,59.85
2018-04-08T21:46:19.597Z,59.54
2018-04-08T21:48:48.750Z,59.69
2018-04-08T21:51:17.961Z,61.40
2018-04-08T21:53:46.771Z,66.91
2018-04-08T21:56:15.539Z,66.94
2018-04-08T21:58:45.023Z,66.12
2018-04-08T22:01:15.886Z,65.54
2018-04-08T22:03:44.631Z,64.18
2018-04-08T22:06:14.107Z,63.84
2018-04-08T22:08:44.052Z,63.58
2018-04-08T22:11:13.335Z,63.29
2018-04-08T22:13:42.775Z,63.20
2018-04-08T22:16:11.737Z,63.46
2018-04-08T22:18:40.456Z,63.15
2018-04-08T22:21:09.866Z,63.73
2018-04-08T22:23:38.527Z,63.40
2018-04-08T22:26:07.751Z,64.91
2018-04-08T22:28:36.559Z,65.71
2018-04-08T22:31:05.305Z,65.78
2018-04-08T22:33:33.944Z,65.26
2018-04-08T22:36:03.367Z,64.89
2018-04-08T22:38:32.899Z,64.37
2018-04-08T22:41:01.775Z,63.60
2018-04-08T22:43:30.972Z,63.03
2018-04-08T22:46:00.132Z,63.06
2018-04-08T22:48:29.609Z,62.95
2018-04-08T22:50:58.354Z,62.72
2018-04-08T22:53:27.129Z,62.34
2018-04-08T22:55:55.902Z,62.18
2018-04-08T22:58:24.493Z,61.93
2018-04-08T23:00:53.962Z,61.95
2018-04-08T23:03:22.710Z,62.06
2018-04-08T23:05:51.716Z,62.21
2018-04-08T23:08:20.282Z,62.78
2018-04-08T23:10:48.962Z,62.83
2018-04-08T23:13:18.843Z,63.13
2018-04-08T23:15:48.195Z,63.13
2018-04-08T23:18:17.628Z,62.86
2018-04-08T23:20:47.046Z,65.16
2018-04-08T23:23:15.720Z,68.71
2018-04-08T23:25:44.424Z,69.48
2018-04-08T23:28:13.180Z,68.87
2018-04-08T23:30:42.653Z,68.68
2018-04-08T23:33:11.324Z,68.54
2018-04-08T23:35:40.006Z,68.64
2018-04-08T23:38:08.615Z,68.37
2018-04-08T23:40:37.985Z,68.08
2018-04-08T23:43:06.915Z,67.69
2018-04-08T23:45:36.842Z,67.16
2018-04-08T23:48:05.485Z,66.93
2018-04-08T23:50:34.058Z,66.61
2018-04-08T23:53:02.701Z,66.29
2018-04-08T23:55:32.090Z,65.54
2018-04-08T23:58:00.766Z,65.46
